Puropanmaru No.3 — JD3322 — position and weather

sailwx.info

Track history (hours):
 
Tides and Currents Weather Stations Pressure Air Temp Water Temp Dewpoint Dewpoint Depression Visibility Wind Speed Wind Dir Waves Ship Positions

Puropanmaru No.3

Last reported at 2015-Jul-03 09:29 UTC. Time now 2015-Jul-07 02:35 UTC.
Position N 34°04' E 134°59'.

Length 68 m; draft 4.5 m.

Type: Tanker. MMSI: 431003365.

Date/timePositionNaut miles runAvg speedWind from/ knotsBaromVisibWave heightAir tempDewpointWater temp
2015-Jul-03 09:29N 34°04' E 134°59'1212.8
2015-Jul-03 08:33N 34°16' E 134°58'1211.8
2015-Jul-03 07:33N 34°25' E 135°07'1313.1
2015-Jul-03 06:33N 34°32' E 135°21'4 0.8
2015-Jul-03 01:31N 34°32' E 135°25'0 0.0
2015-Jul-03 00:03N 34°32' E 135°25'0 0.0
2015-Jul-02 23:10N 34°32' E 135°25'1 1.7
2015-Jul-02 22:33N 34°33' E 135°25'5 5.1
2015-Jul-02 21:33N 34°33' E 135°19'0 0.0
2015-Jul-02 20:33N 34°33' E 135°19'0 0.1
2015-Jul-02 19:33N 34°33' E 135°19'0 0.0
2015-Jul-02 18:33N 34°33' E 135°19'0 0.0
2015-Jul-02 17:33N 34°33' E 135°19'0 0.1
2015-Jul-02 16:33N 34°33' E 135°19'0 0.0
2015-Jul-02 15:33N 34°33' E 135°19'10 9.7
2015-Jul-02 14:28N 34°26' E 135°09'1312.6
2015-Jul-02 13:25N 34°15' E 134°59'227 5.0
2015-Jun-30 16:05N 35°02' E 139°30'713.0
2015-Jun-30 15:33N 35°05' E 139°37'1212.1
2015-Jun-30 14:33N 35°15' E 139°46'1111.1
2015-Jun-30 13:33N 35°26' E 139°45'5 5.0
2015-Jun-30 12:34N 35°31' E 139°46'0 0.0
2015-Jun-30 11:34N 35°31' E 139°46'0 0.0
2015-Jun-30 10:34N 35°31' E 139°46'0 0.0
2015-Jun-30 09:34N 35°31' E 139°46'0 0.0
2015-Jun-30 08:33N 35°31' E 139°46'0 0.0
2015-Jun-30 07:34N 35°31' E 139°46'0 0.3
2015-Jun-30 06:33N 35°30' E 139°47'3 3.1
2015-Jun-30 05:33N 35°30' E 139°50'0 0.0
2015-Jun-30 04:33N 35°30' E 139°50'0 0.0
2015-Jun-30 03:34N 35°30' E 139°50'0 0.0
2015-Jun-30 02:33N 35°30' E 139°50'9 9.2
2015-Jun-30 01:33N 35°31' E 140°02'1 0.8
2015-Jun-30 00:33N 35°31' E 140°02'0 0.0
2015-Jun-29 23:33N 35°31' E 140°02'0 0.0
2015-Jun-29 22:33N 35°31' E 140°02'1 1.2
2015-Jun-29 21:33N 35°31' E 140°01'5 5.0
2015-Jun-29 20:33N 35°29' E 139°55'0 0.0
2015-Jun-29 19:33N 35°29' E 139°55'0 0.0
2015-Jun-29 18:34N 35°29' E 139°55'0 0.0
2015-Jun-29 17:33N 35°29' E 139°55'0 0.1
2015-Jun-29 16:33N 35°29' E 139°55'0 0.0
2015-Jun-29 15:33N 35°29' E 139°55'0 0.0
2015-Jun-29 14:34N 35°29' E 139°55'0 0.1
2015-Jun-29 13:33N 35°29' E 139°55'0 0.0
2015-Jun-29 12:34N 35°29' E 139°55'0 0.0
2015-Jun-29 11:34N 35°29' E 139°55'0 0.0
2015-Jun-29 10:34N 35°29' E 139°55'0 0.0
2015-Jun-29 09:34N 35°29' E 139°55'0 0.0
2015-Jun-29 08:33N 35°29' E 139°55'6 6.1
2015-Jun-29 07:33N 35°26' E 139°49'1111.0
2015-Jun-29 06:34N 35°15' E 139°47'1312.5
2015-Jun-29 05:33N 35°04' E 139°42'24010.9
2015-Jun-28 07:27N 34°02' E 134°60'1112.7
2015-Jun-28 06:33N 34°13' E 134°59'1211.7
2015-Jun-28 05:30N 34°24' E 135°05'1313.2
2015-Jun-28 04:33N 34°31' E 135°18'6 5.3
2015-Jun-28 03:25N 34°32' E 135°25'0 0.0
2015-Jun-28 02:32N 34°32' E 135°25'0 0.0
2015-Jun-28 01:33N 34°32' E 135°25'0 0.0
2015-Jun-28 00:28N 34°32' E 135°25'0 0.0
2015-Jun-27 23:24N 34°32' E 135°25'1 1.5
2015-Jun-27 22:32N 34°33' E 135°24'4 4.5
2015-Jun-27 21:33N 34°32' E 135°19'0 0.0
2015-Jun-27 20:33N 34°32' E 135°19'0 0.0
2015-Jun-27 19:33N 34°32' E 135°19'0 0.0
2015-Jun-27 18:33N 34°32' E 135°19'0 0.0
2015-Jun-27 17:33N 34°32' E 135°19'0 0.0
2015-Jun-27 16:31N 34°32' E 135°19'0 0.0
2015-Jun-27 15:33N 34°32' E 135°19'0 0.1
2015-Jun-27 14:33N 34°32' E 135°19'0 0.0
2015-Jun-27 13:33N 34°32' E 135°19'0 0.0
2015-Jun-27 12:33N 34°32' E 135°19'0 0.0
2015-Jun-27 11:33N 34°32' E 135°19'0 0.0
2015-Jun-27 10:33N 34°32' E 135°19'0 0.1
2015-Jun-27 09:33N 34°33' E 135°19'0 0.0
2015-Jun-27 08:32N 34°33' E 135°19'0 0.0
2015-Jun-27 07:33N 34°33' E 135°19'0 0.0
2015-Jun-27 06:33N 34°33' E 135°19'0 0.3
2015-Jun-27 05:33N 34°33' E 135°19'1313.3
2015-Jun-27 04:33N 34°36' E 135°03'1413.5
2015-Jun-27 03:33N 34°40' E 134°47'236 5.2
2015-Jun-25 06:11N 35°03' E 139°33'813.2
2015-Jun-25 05:33N 35°07' E 139°42'1111.4
2015-Jun-25 04:33N 35°18' E 139°43'1211.8
2015-Jun-25 03:33N 35°30' E 139°48'2 1.5
2015-Jun-25 02:33N 35°31' E 139°46'0 0.0
2015-Jun-25 01:33N 35°31' E 139°46'0 0.0
2015-Jun-25 00:33N 35°31' E 139°46'0 0.0
2015-Jun-24 23:33N 35°31' E 139°46'0 0.0
2015-Jun-24 22:33N 35°31' E 139°46'3 3.1
2015-Jun-24 21:33N 35°29' E 139°49'0 0.0
2015-Jun-24 20:33N 35°29' E 139°49'0 0.0
2015-Jun-24 19:33N 35°29' E 139°49'0 0.0
2015-Jun-24 18:33N 35°29' E 139°49'0 0.0
2015-Jun-24 17:33N 35°29' E 139°49'0 0.0
2015-Jun-24 16:33N 35°29' E 139°49'0 0.0
2015-Jun-24 15:33N 35°29' E 139°49'0 0.1
2015-Jun-24 14:33N 35°29' E 139°49'1111.0
2015-Jun-24 13:33N 35°19' E 139°44'1312.7
2015-Jun-24 12:33N 35°06' E 139°45'18 8.5
2015-Jun-24 10:26N 34°56' E 140°04'3812.4
2015-Jun-24 07:20N 35°22' E 140°38'1012.6
2015-Jun-24 06:32N 35°30' E 140°46'24 3.4
2015-Jun-23 23:23N 35°54' E 140°41'5 2.6
2015-Jun-23 21:33N 35°58' E 140°45'0 0.0
2015-Jun-23 20:33N 35°58' E 140°45'0 0.0
2015-Jun-23 19:32N 35°58' E 140°45'  
Track history (hours):
 
Tides and Currents Weather Stations Pressure Air Temp Water Temp Dewpoint Dewpoint Depression Visibility Wind Speed Wind Dir Waves Ship Positions

Puropanmaru No.3

Last reported at 2015-Jul-03 09:29 UTC. Time now 2015-Jul-07 02:35 UTC.
Position N 34°04' E 134°59'.

Length 68 m; draft 4.5 m.

Type: Tanker. MMSI: 431003365.

Date/timePositionNaut miles runAvg speedWind from/ knotsBaromVisibWave heightAir tempDewpointWater temp
2015-Jul-03 09:29N 34°04' E 134°59'1212.8
2015-Jul-03 08:33N 34°16' E 134°58'1211.8
2015-Jul-03 07:33N 34°25' E 135°07'1313.1
2015-Jul-03 06:33N 34°32' E 135°21'4 0.8
2015-Jul-03 01:31N 34°32' E 135°25'0 0.0
2015-Jul-03 00:03N 34°32' E 135°25'0 0.0
2015-Jul-02 23:10N 34°32' E 135°25'1 1.7
2015-Jul-02 22:33N 34°33' E 135°25'5 5.1
2015-Jul-02 21:33N 34°33' E 135°19'0 0.0
2015-Jul-02 20:33N 34°33' E 135°19'0 0.1
2015-Jul-02 19:33N 34°33' E 135°19'0 0.0
2015-Jul-02 18:33N 34°33' E 135°19'0 0.0
2015-Jul-02 17:33N 34°33' E 135°19'0 0.1
2015-Jul-02 16:33N 34°33' E 135°19'0 0.0
2015-Jul-02 15:33N 34°33' E 135°19'10 9.7
2015-Jul-02 14:28N 34°26' E 135°09'1312.6
2015-Jul-02 13:25N 34°15' E 134°59'227 5.0
2015-Jun-30 16:05N 35°02' E 139°30'713.0
2015-Jun-30 15:33N 35°05' E 139°37'1212.1
2015-Jun-30 14:33N 35°15' E 139°46'1111.1
2015-Jun-30 13:33N 35°26' E 139°45'5 5.0
2015-Jun-30 12:34N 35°31' E 139°46'0 0.0
2015-Jun-30 11:34N 35°31' E 139°46'0 0.0
2015-Jun-30 10:34N 35°31' E 139°46'0 0.0
2015-Jun-30 09:34N 35°31' E 139°46'0 0.0
2015-Jun-30 08:33N 35°31' E 139°46'0 0.0
2015-Jun-30 07:34N 35°31' E 139°46'0 0.3
2015-Jun-30 06:33N 35°30' E 139°47'3 3.1
2015-Jun-30 05:33N 35°30' E 139°50'0 0.0
2015-Jun-30 04:33N 35°30' E 139°50'0 0.0
2015-Jun-30 03:34N 35°30' E 139°50'0 0.0
2015-Jun-30 02:33N 35°30' E 139°50'9 9.2
2015-Jun-30 01:33N 35°31' E 140°02'1 0.8
2015-Jun-30 00:33N 35°31' E 140°02'0 0.0
2015-Jun-29 23:33N 35°31' E 140°02'0 0.0
2015-Jun-29 22:33N 35°31' E 140°02'1 1.2
2015-Jun-29 21:33N 35°31' E 140°01'5 5.0
2015-Jun-29 20:33N 35°29' E 139°55'0 0.0
2015-Jun-29 19:33N 35°29' E 139°55'0 0.0
2015-Jun-29 18:34N 35°29' E 139°55'0 0.0
2015-Jun-29 17:33N 35°29' E 139°55'0 0.1
2015-Jun-29 16:33N 35°29' E 139°55'0 0.0
2015-Jun-29 15:33N 35°29' E 139°55'0 0.0
2015-Jun-29 14:34N 35°29' E 139°55'0 0.1
2015-Jun-29 13:33N 35°29' E 139°55'0 0.0
2015-Jun-29 12:34N 35°29' E 139°55'0 0.0
2015-Jun-29 11:34N 35°29' E 139°55'0 0.0
2015-Jun-29 10:34N 35°29' E 139°55'0 0.0
2015-Jun-29 09:34N 35°29' E 139°55'0 0.0
2015-Jun-29 08:33N 35°29' E 139°55'6 6.1
2015-Jun-29 07:33N 35°26' E 139°49'1111.0
2015-Jun-29 06:34N 35°15' E 139°47'1312.5
2015-Jun-29 05:33N 35°04' E 139°42'24010.9
2015-Jun-28 07:27N 34°02' E 134°60'1112.7
2015-Jun-28 06:33N 34°13' E 134°59'1211.7
2015-Jun-28 05:30N 34°24' E 135°05'1313.2
2015-Jun-28 04:33N 34°31' E 135°18'6 5.3
2015-Jun-28 03:25N 34°32' E 135°25'0 0.0
2015-Jun-28 02:32N 34°32' E 135°25'0 0.0
2015-Jun-28 01:33N 34°32' E 135°25'0 0.0
2015-Jun-28 00:28N 34°32' E 135°25'0 0.0
2015-Jun-27 23:24N 34°32' E 135°25'1 1.5
2015-Jun-27 22:32N 34°33' E 135°24'4 4.5
2015-Jun-27 21:33N 34°32' E 135°19'0 0.0
2015-Jun-27 20:33N 34°32' E 135°19'0 0.0
2015-Jun-27 19:33N 34°32' E 135°19'0 0.0
2015-Jun-27 18:33N 34°32' E 135°19'0 0.0
2015-Jun-27 17:33N 34°32' E 135°19'0 0.0
2015-Jun-27 16:31N 34°32' E 135°19'0 0.0
2015-Jun-27 15:33N 34°32' E 135°19'0 0.1
2015-Jun-27 14:33N 34°32' E 135°19'0 0.0
2015-Jun-27 13:33N 34°32' E 135°19'0 0.0
2015-Jun-27 12:33N 34°32' E 135°19'0 0.0
2015-Jun-27 11:33N 34°32' E 135°19'0 0.0
2015-Jun-27 10:33N 34°32' E 135°19'0 0.1
2015-Jun-27 09:33N 34°33' E 135°19'0 0.0
2015-Jun-27 08:32N 34°33' E 135°19'0 0.0
2015-Jun-27 07:33N 34°33' E 135°19'0 0.0
2015-Jun-27 06:33N 34°33' E 135°19'0 0.3
2015-Jun-27 05:33N 34°33' E 135°19'1313.3
2015-Jun-27 04:33N 34°36' E 135°03'1413.5
2015-Jun-27 03:33N 34°40' E 134°47'236 5.2
2015-Jun-25 06:11N 35°03' E 139°33'813.2
2015-Jun-25 05:33N 35°07' E 139°42'1111.4
2015-Jun-25 04:33N 35°18' E 139°43'1211.8
2015-Jun-25 03:33N 35°30' E 139°48'2 1.5
2015-Jun-25 02:33N 35°31' E 139°46'0 0.0
2015-Jun-25 01:33N 35°31' E 139°46'0 0.0
2015-Jun-25 00:33N 35°31' E 139°46'0 0.0
2015-Jun-24 23:33N 35°31' E 139°46'0 0.0
2015-Jun-24 22:33N 35°31' E 139°46'3 3.1
2015-Jun-24 21:33N 35°29' E 139°49'0 0.0
2015-Jun-24 20:33N 35°29' E 139°49'0 0.0
2015-Jun-24 19:33N 35°29' E 139°49'0 0.0
2015-Jun-24 18:33N 35°29' E 139°49'0 0.0
2015-Jun-24 17:33N 35°29' E 139°49'0 0.0
2015-Jun-24 16:33N 35°29' E 139°49'0 0.0
2015-Jun-24 15:33N 35°29' E 139°49'0 0.1
2015-Jun-24 14:33N 35°29' E 139°49'1111.0
2015-Jun-24 13:33N 35°19' E 139°44'1312.7
2015-Jun-24 12:33N 35°06' E 139°45'18 8.5
2015-Jun-24 10:26N 34°56' E 140°04'3812.4
2015-Jun-24 07:20N 35°22' E 140°38'1012.6
2015-Jun-24 06:32N 35°30' E 140°46'24 3.4
2015-Jun-23 23:23N 35°54' E 140°41'5 2.6
2015-Jun-23 21:33N 35°58' E 140°45'0 0.0
2015-Jun-23 20:33N 35°58' E 140°45'0 0.0
2015-Jun-23 19:32N 35°58' E 140°45'  

Dump ship's entire track history